Kostas Dimakis — SY8782 — position and weather

sailwx.info

Track history (hours):
 
Tides and Currents Weather Stations Pressure Air Temp Water Temp Dewpoint Dewpoint Depression Visibility Wind Speed Wind Dir Waves Ship Positions

Kostas Dimakis

Last reported at 2018-Jun-17 00:17 UTC. Time now 2018-Jun-18 02:14 UTC.
Position N 37°35' E 023°32'.

Length 67 m; draft 4.8 m.

Type: Cargo ship. MMSI: 239279500.

Date/timePositionNaut miles runAvg speedWind from/ knotsBaromVisibWave heightAir tempDewpointWater temp
2018-Jun-17 00:17N 37°35' E 023°32'3 8.8
2018-Jun-16 23:55N 37°37' E 023°29'4 8.7
2018-Jun-16 23:30N 37°39' E 023°25'4 8.7
2018-Jun-16 23:00N 37°40' E 023°20'4 7.5
2018-Jun-16 22:30N 37°43' E 023°17'4 8.7
2018-Jun-16 22:00N 37°46' E 023°14'4 8.8
2018-Jun-16 21:30N 37°50' E 023°11'4 8.5
2018-Jun-16 21:00N 37°53' E 023°07'4 8.8
2018-Jun-16 20:30N 37°55' E 023°02'3 5.6
2018-Jun-16 19:53N 37°57' E 022°58'2 4.0
2018-Jun-16 19:30N 37°58' E 022°57'4 7.3
2018-Jun-16 19:00N 37°60' E 022°53'4 7.1
2018-Jun-16 18:25N 38°04' E 022°51'7 8.7
2018-Jun-16 17:36N 38°09' E 022°57'1 8.8
2018-Jun-16 17:30N 38°09' E 022°57'3 0.4
2018-Jun-16 10:26N 38°12' E 022°58'3 6.9
2018-Jun-16 09:59N 38°09' E 022°58'1 0.0
2018-Jun-14 14:26N 38°10' E 022°57'3 5.8
2018-Jun-14 13:59N 38°12' E 022°58'2 0.3
2018-Jun-14 07:17N 38°10' E 022°58'1 0.1
2018-Jun-13 11:41N 38°10' E 022°56'2 8.0
2018-Jun-13 11:26N 38°10' E 022°59'1 0.2
2018-Jun-13 03:41N 38°09' E 022°58'11 0.4
2018-Jun-11 23:46N 38°01' E 022°49'4 8.6
2018-Jun-11 23:21N 37°59' E 022°53'3 8.3
2018-Jun-11 23:00N 37°58' E 022°56'4 5.7
2018-Jun-11 22:17N 37°55' E 023°00'1 4.6
2018-Jun-11 22:00N 37°55' E 023°02'2 4.0
2018-Jun-11 21:30N 37°54' E 023°04'4 8.7
2018-Jun-11 21:00N 37°52' E 023°09'4 9.0
2018-Jun-11 20:30N 37°49' E 023°12'5 9.1
2018-Jun-11 20:01N 37°45' E 023°15'4 8.5
2018-Jun-11 19:30N 37°41' E 023°17'4 8.3
2018-Jun-11 19:00N 37°39' E 023°22'5 8.9
2018-Jun-11 18:28N 37°38' E 023°28'4 8.3
2018-Jun-11 18:00N 37°36' E 023°32'  
2018-Jun-09 10:58N 37°05' E 024°58'4 9.4
2018-Jun-09 10:30N 37°08' E 025°02'5 9.1
2018-Jun-09 10:00N 37°12' E 025°06'5 9.6
2018-Jun-09 09:30N 37°15' E 025°09'510.1
2018-Jun-09 09:00N 37°19' E 025°14'5 9.8
2018-Jun-09 08:30N 37°23' E 025°17'4 8.5
2018-Jun-09 08:00N 37°27' E 025°18'2 3.2
2018-Jun-09 07:30N 37°28' E 025°20'0 0.0
2018-Jun-09 07:00N 37°28' E 025°20'0 0.0
2018-Jun-09 06:30N 37°28' E 025°20'0 0.0
2018-Jun-09 06:00N 37°28' E 025°20'0 0.0
2018-Jun-09 05:30N 37°28' E 025°20'0 0.0
2018-Jun-09 04:59N 37°28' E 025°20'0 0.0
2018-Jun-09 04:29N 37°28' E 025°20'0 0.0
2018-Jun-09 04:00N 37°28' E 025°20'0 0.0
2018-Jun-09 03:30N 37°28' E 025°20'0 0.0
2018-Jun-09 03:00N 37°28' E 025°20'0 0.0
2018-Jun-09 02:30N 37°28' E 025°20'0 0.0
2018-Jun-09 02:00N 37°28' E 025°20'0 0.0
2018-Jun-09 01:30N 37°28' E 025°20'0 0.0
2018-Jun-09 01:00N 37°28' E 025°20'0 0.0
2018-Jun-09 00:30N 37°28' E 025°20'0 0.0
2018-Jun-09 00:00N 37°28' E 025°20'0 0.1
2018-Jun-08 23:30N 37°28' E 025°20'2 4.8
2018-Jun-08 23:00N 37°26' E 025°17'4 7.8
2018-Jun-08 22:30N 37°23' E 025°19'4 8.6
2018-Jun-08 22:00N 37°22' E 025°24'5 9.0
2018-Jun-08 21:30N 37°22' E 025°30'10 8.8
2018-Jun-08 20:24N 37°21' E 025°42'4 9.0
2018-Jun-08 20:00N 37°20' E 025°46'4 8.7
2018-Jun-08 19:30N 37°20' E 025°52'  
Track history (hours):
 
Tides and Currents Weather Stations Pressure Air Temp Water Temp Dewpoint Dewpoint Depression Visibility Wind Speed Wind Dir Waves Ship Positions

Kostas Dimakis

Last reported at 2018-Jun-17 00:17 UTC. Time now 2018-Jun-18 02:14 UTC.
Position N 37°35' E 023°32'.

Length 67 m; draft 4.8 m.

Type: Cargo ship. MMSI: 239279500.

Date/timePositionNaut miles runAvg speedWind from/ knotsBaromVisibWave heightAir tempDewpointWater temp
2018-Jun-17 00:17N 37°35' E 023°32'3 8.8
2018-Jun-16 23:55N 37°37' E 023°29'4 8.7
2018-Jun-16 23:30N 37°39' E 023°25'4 8.7
2018-Jun-16 23:00N 37°40' E 023°20'4 7.5
2018-Jun-16 22:30N 37°43' E 023°17'4 8.7
2018-Jun-16 22:00N 37°46' E 023°14'4 8.8
2018-Jun-16 21:30N 37°50' E 023°11'4 8.5
2018-Jun-16 21:00N 37°53' E 023°07'4 8.8
2018-Jun-16 20:30N 37°55' E 023°02'3 5.6
2018-Jun-16 19:53N 37°57' E 022°58'2 4.0
2018-Jun-16 19:30N 37°58' E 022°57'4 7.3
2018-Jun-16 19:00N 37°60' E 022°53'4 7.1
2018-Jun-16 18:25N 38°04' E 022°51'7 8.7
2018-Jun-16 17:36N 38°09' E 022°57'1 8.8
2018-Jun-16 17:30N 38°09' E 022°57'3 0.4
2018-Jun-16 10:26N 38°12' E 022°58'3 6.9
2018-Jun-16 09:59N 38°09' E 022°58'1 0.0
2018-Jun-14 14:26N 38°10' E 022°57'3 5.8
2018-Jun-14 13:59N 38°12' E 022°58'2 0.3
2018-Jun-14 07:17N 38°10' E 022°58'1 0.1
2018-Jun-13 11:41N 38°10' E 022°56'2 8.0
2018-Jun-13 11:26N 38°10' E 022°59'1 0.2
2018-Jun-13 03:41N 38°09' E 022°58'11 0.4
2018-Jun-11 23:46N 38°01' E 022°49'4 8.6
2018-Jun-11 23:21N 37°59' E 022°53'3 8.3
2018-Jun-11 23:00N 37°58' E 022°56'4 5.7
2018-Jun-11 22:17N 37°55' E 023°00'1 4.6
2018-Jun-11 22:00N 37°55' E 023°02'2 4.0
2018-Jun-11 21:30N 37°54' E 023°04'4 8.7
2018-Jun-11 21:00N 37°52' E 023°09'4 9.0
2018-Jun-11 20:30N 37°49' E 023°12'5 9.1
2018-Jun-11 20:01N 37°45' E 023°15'4 8.5
2018-Jun-11 19:30N 37°41' E 023°17'4 8.3
2018-Jun-11 19:00N 37°39' E 023°22'5 8.9
2018-Jun-11 18:28N 37°38' E 023°28'4 8.3
2018-Jun-11 18:00N 37°36' E 023°32'  
2018-Jun-09 10:58N 37°05' E 024°58'4 9.4
2018-Jun-09 10:30N 37°08' E 025°02'5 9.1
2018-Jun-09 10:00N 37°12' E 025°06'5 9.6
2018-Jun-09 09:30N 37°15' E 025°09'510.1
2018-Jun-09 09:00N 37°19' E 025°14'5 9.8
2018-Jun-09 08:30N 37°23' E 025°17'4 8.5
2018-Jun-09 08:00N 37°27' E 025°18'2 3.2
2018-Jun-09 07:30N 37°28' E 025°20'0 0.0
2018-Jun-09 07:00N 37°28' E 025°20'0 0.0
2018-Jun-09 06:30N 37°28' E 025°20'0 0.0
2018-Jun-09 06:00N 37°28' E 025°20'0 0.0
2018-Jun-09 05:30N 37°28' E 025°20'0 0.0
2018-Jun-09 04:59N 37°28' E 025°20'0 0.0
2018-Jun-09 04:29N 37°28' E 025°20'0 0.0
2018-Jun-09 04:00N 37°28' E 025°20'0 0.0
2018-Jun-09 03:30N 37°28' E 025°20'0 0.0
2018-Jun-09 03:00N 37°28' E 025°20'0 0.0
2018-Jun-09 02:30N 37°28' E 025°20'0 0.0
2018-Jun-09 02:00N 37°28' E 025°20'0 0.0
2018-Jun-09 01:30N 37°28' E 025°20'0 0.0
2018-Jun-09 01:00N 37°28' E 025°20'0 0.0
2018-Jun-09 00:30N 37°28' E 025°20'0 0.0
2018-Jun-09 00:00N 37°28' E 025°20'0 0.1
2018-Jun-08 23:30N 37°28' E 025°20'2 4.8
2018-Jun-08 23:00N 37°26' E 025°17'4 7.8
2018-Jun-08 22:30N 37°23' E 025°19'4 8.6
2018-Jun-08 22:00N 37°22' E 025°24'5 9.0
2018-Jun-08 21:30N 37°22' E 025°30'10 8.8
2018-Jun-08 20:24N 37°21' E 025°42'4 9.0
2018-Jun-08 20:00N 37°20' E 025°46'4 8.7
2018-Jun-08 19:30N 37°20' E 025°52'  

Dump ship's entire track history